Futenma Marine Corps Air Facility, Japan

9:07 AM JST on July 14, 2014 (GMT +0900)
Naha (ROAH) Elev 20 ft | 26.20 °N, 127.65 °E | Change Station

Current weather conditions updated 7 minutes ago

Partly Cloudy
Partly Cloudy
84 °F
Feels Like 94 °F
N
10
Wind Variable Wind from SSW

Today is forecast to be Cooler than yesterday.

Today
High -- | Low -- °F
--% Chance of Precip.
Yesterday
High -- | Low -- °F
Precip. -- in
5:45 AM 7:24 PM
Waning Gibbous, 96% visible
Pressure 29.86 in
Visibility 6.2 miles
Clouds Few 1500 ft
Heat Index 94 °F
Dew Point 77 °F
Humidity 79%
Rainfall 0.00 in
Snow Depth Not available.
UV 0 out of 12
Pollen Not available.
Air Quality Not available.
Flu Activity Not available.
METAR ROAH 140000Z 20009KT 9999 FEW015 29/25 Q1011 RMK 1CU015 A2988

More Conditions Fewer Conditions

Pressure 29.86 in
Visibility 6.2 miles
Clouds Few 1500 ft
Heat Index 94 °F
Dew Point 77 °F
Humidity 79%
Rainfall 0.00 in
Snow Depth Not available.
UV 0 out of 12
Pollen Not available.
Air Quality Not available.
Flu Activity Not available.
METAR ROAH 140000Z 20009KT 9999 FEW015 29/25 Q1011 RMK 1CU015 A2988

More Conditions Fewer Conditions

10-Day Weather Forecast

Almanac

Astronomy

Jul. 14, 2014 Rise Set
Actual Time 5:45 AM JST 7:24 PM JST
Civil Twilight 5:19 AM JST 7:49 PM JST
Nautical Twilight 4:48 AM JST 8:20 PM JST
Astronomical Twilight 4:16 AM JST 8:52 PM JST
Moon 8:47 PM JST 7:29 AM JST
Length of Visible Light 14h 30m
Length of Day
13h 38m
Tomorrow will be 0m 44s shorter.
Waning Gibbous, 96% of the Moon is Illuminated
Jul 13
Waning Gibbous
Jul 18
Last Quarter
Jul 26
New
Aug 3
First Quarter
Aug 10
Full

Yesterday's Extremes

Country Highs Country Lows

Community

WunderPhotos

Upload Photos

1,733,454 photos uploaded!

Nearby

Snow Depth

Not available.

Earthquake Activity

City Distance Mag. Time & Date
No recent earthquake activity has been reported nearby.
Minimum magnitude displayed is 2.5.

Coastal Water Temperatures

Place Temperature
No Stations Reporting

Nearby Weather Stations

Station Location Temp. Heat Index Dew Point Humidity Wind Precip. Elev Updated Type
Camp Hansen Range Control Okinawa Japan, Kin 84.6 °F 96 °F 78 °F 80% South  at  9.0 mph 0.00 in / hr 210 ft 9:06 AM JST Rapid Fire

Show More Stations Show Fewer Stations